createdAt,value
2023-03-25T00:00:58.629Z,1.2
2023-03-25T00:01:59.274Z,1.1
2023-03-25T00:02:59.946Z,1.5
2023-03-25T00:04:00.510Z,1.3
2023-03-25T00:05:01.181Z,1.4
2023-03-25T00:06:01.756Z,1.3
2023-03-25T00:07:02.366Z,1.3
2023-03-25T00:08:02.983Z,1.1
2023-03-25T00:09:03.575Z,1.3
2023-03-25T00:10:04.192Z,1.6
2023-03-25T00:11:04.822Z,1.6
2023-03-25T00:12:05.400Z,1.5
2023-03-25T00:13:05.994Z,1.2
2023-03-25T00:14:06.576Z,1.1
2023-03-25T00:15:07.167Z,1.6
2023-03-25T00:16:07.841Z,1.8
2023-03-25T00:17:08.401Z,1.0
2023-03-25T00:18:08.994Z,1.0
2023-03-25T00:19:09.592Z,1.5
2023-03-25T00:20:10.259Z,1.3
2023-03-25T00:21:10.979Z,1.4
2023-03-25T00:22:11.556Z,1.3
2023-03-25T00:23:12.150Z,1.1
2023-03-25T00:24:12.765Z,1.3
2023-03-25T00:25:13.372Z,1.0
2023-03-25T00:26:13.989Z,1.9
2023-03-25T00:27:14.576Z,1.2
2023-03-25T00:28:15.190Z,1.1
2023-03-25T00:29:15.781Z,1.2
2023-03-25T00:30:16.398Z,1.4
2023-03-25T00:31:17.117Z,1.4
2023-03-25T00:32:17.703Z,1.2
2023-03-25T00:33:18.305Z,1.3
2023-03-25T00:34:18.890Z,2.0
2023-03-25T00:35:19.935Z,1.8
2023-03-25T00:36:20.094Z,1.4
2023-03-25T00:37:20.706Z,0.9
2023-03-25T00:38:21.300Z,1.5
2023-03-25T00:39:21.914Z,1.2
2023-03-25T00:40:22.627Z,1.1
2023-03-25T00:41:23.470Z,1.4
2023-03-25T00:42:24.095Z,1.1
2023-03-25T00:43:24.709Z,1.2
2023-03-25T00:44:25.300Z,1.6
2023-03-25T00:45:25.902Z,1.4
2023-03-25T00:46:26.532Z,1.6
2023-03-25T00:47:27.155Z,1.5
2023-03-25T00:48:27.712Z,1.2
2023-03-25T00:49:28.306Z,1.3
2023-03-25T00:50:28.900Z,1.4
2023-03-25T00:51:29.491Z,1.3
2023-03-25T00:52:30.083Z,1.1
2023-03-25T00:53:30.700Z,1.2
2023-03-25T00:54:31.292Z,1.7
2023-03-25T00:55:31.885Z,1.3
2023-03-25T00:56:32.510Z,1.1
2023-03-25T00:57:33.092Z,1.4
2023-03-25T00:58:33.685Z,1.6
2023-03-25T00:59:34.299Z,1.2
2023-03-25T01:00:34.889Z,1.2
2023-03-25T01:01:35.531Z,1.2
2023-03-25T01:02:36.255Z,1.0
2023-03-25T01:03:36.809Z,1.1
2023-03-25T01:04:38.070Z,1.1
2023-03-25T01:05:37.940Z,1.0
2023-03-25T01:06:38.532Z,1.1
2023-03-25T01:07:39.137Z,1.2
2023-03-25T01:08:39.716Z,1.2
2023-03-25T01:09:40.309Z,1.2
2023-03-25T01:10:40.903Z,1.3
2023-03-25T01:11:41.508Z,1.2
2023-03-25T01:12:42.108Z,1.0
2023-03-25T01:13:42.702Z,1.0
2023-03-25T01:14:43.294Z,1.0
2023-03-25T01:15:43.937Z,1.2
2023-03-25T01:16:44.490Z,1.0
2023-03-25T01:17:45.123Z,1.2
2023-03-25T01:18:45.692Z,1.4
2023-03-25T01:19:46.285Z,1.3
2023-03-25T01:20:46.885Z,1.3
2023-03-25T01:21:47.478Z,1.2
2023-03-25T01:22:48.173Z,1.3
2023-03-25T01:23:48.705Z,1.4
2023-03-25T01:24:49.298Z,1.1
2023-03-25T01:25:50.086Z,1.5
2023-03-25T01:26:50.775Z,1.5
2023-03-25T01:27:51.361Z,1.3
2023-03-25T01:28:51.961Z,1.2
2023-03-25T01:29:52.594Z,1.4
2023-03-25T01:30:53.143Z,1.5
2023-03-25T01:31:53.749Z,1.4
2023-03-25T01:32:54.432Z,1.4
2023-03-25T01:33:54.970Z,1.4
2023-03-25T01:34:55.564Z,1.3
2023-03-25T01:35:56.196Z,1.8
2023-03-25T01:36:56.777Z,2.0
2023-03-25T01:37:57.389Z,1.9
2023-03-25T01:38:58.000Z,1.7
2023-03-25T01:39:58.588Z,1.6
2023-03-25T01:40:59.183Z,1.4
2023-03-25T01:41:59.801Z,1.6
2023-03-25T01:43:00.407Z,1.7
2023-03-25T01:44:01.017Z,1.9
2023-03-25T01:45:01.593Z,1.9
2023-03-25T01:46:02.187Z,2.1
2023-03-25T01:47:02.837Z,1.5
2023-03-25T01:48:03.389Z,1.8
2023-03-25T01:49:04.006Z,1.6
2023-03-25T01:50:04.603Z,1.8
2023-03-25T01:51:05.184Z,1.5
2023-03-25T01:52:05.784Z,1.7
2023-03-25T01:53:06.367Z,1.8
2023-03-25T01:54:06.962Z,2.1
2023-03-25T01:55:07.560Z,2.2
2023-03-25T01:56:08.147Z,1.7
2023-03-25T01:57:08.765Z,2.0
2023-03-25T01:58:09.332Z,2.0
2023-03-25T01:59:09.925Z,2.0
2023-03-25T02:00:10.546Z,2.2
2023-03-25T02:01:11.194Z,1.9
2023-03-25T02:02:11.748Z,2.0
2023-03-25T02:03:12.368Z,2.4
2023-03-25T02:04:12.932Z,2.2
2023-03-25T02:05:13.527Z,2.6
2023-03-25T02:06:14.119Z,2.5
2023-03-25T02:07:14.714Z,2.3
2023-03-25T02:08:15.310Z,1.9
2023-03-25T02:09:15.907Z,2.3
2023-03-25T02:10:16.516Z,2.4
2023-03-25T02:11:17.133Z,2.1
2023-03-25T02:12:17.721Z,2.4
2023-03-25T02:13:18.312Z,2.4
2023-03-25T02:14:18.911Z,2.8
2023-03-25T02:15:19.502Z,3.1
2023-03-25T02:16:20.179Z,2.9
2023-03-25T02:17:20.771Z,2.5
2023-03-25T02:18:21.363Z,2.8
2023-03-25T02:19:21.957Z,2.9
2023-03-25T02:20:22.550Z,2.7
2023-03-25T02:21:23.151Z,2.6
2023-03-25T02:22:23.756Z,2.6
2023-03-25T02:23:24.351Z,2.4
2023-03-25T02:24:24.944Z,2.8
2023-03-25T02:25:25.540Z,2.9
2023-03-25T02:26:26.150Z,3.0
2023-03-25T02:27:26.741Z,3.0
2023-03-25T02:28:27.338Z,2.7
2023-03-25T02:29:27.948Z,2.9
2023-03-25T02:30:28.567Z,2.9
2023-03-25T02:31:29.214Z,2.7
2023-03-25T02:32:29.820Z,2.8
2023-03-25T02:33:30.375Z,2.6
2023-03-25T02:34:30.969Z,2.3
2023-03-25T02:35:31.598Z,2.7
2023-03-25T02:36:32.196Z,2.7
2023-03-25T02:37:32.789Z,3.0
2023-03-25T02:38:33.378Z,2.9
2023-03-25T02:39:33.996Z,2.5
2023-03-25T02:40:34.568Z,2.5
2023-03-25T02:41:35.179Z,2.9
2023-03-25T02:42:35.794Z,3.0
2023-03-25T02:43:36.384Z,2.7
2023-03-25T02:44:36.995Z,2.6
2023-03-25T02:45:37.604Z,2.5
2023-03-25T02:46:38.180Z,2.5
2023-03-25T02:47:38.857Z,2.5
2023-03-25T02:48:39.429Z,2.7
2023-03-25T02:49:40.040Z,2.3
2023-03-25T02:50:40.679Z,2.8
2023-03-25T02:51:41.274Z,2.6
2023-03-25T02:52:41.855Z,2.2
2023-03-25T02:53:42.467Z,2.2
2023-03-25T02:54:43.061Z,1.8
2023-03-25T02:55:43.711Z,1.9
2023-03-25T02:56:44.317Z,2.6
2023-03-25T02:57:44.914Z,2.0
2023-03-25T02:58:45.521Z,2.3
2023-03-25T02:59:46.136Z,2.0
2023-03-25T03:00:46.724Z,2.2
2023-03-25T03:01:47.416Z,1.6
2023-03-25T03:02:48.039Z,2.1
2023-03-25T03:03:48.637Z,1.9
2023-03-25T03:04:49.241Z,2.3
2023-03-25T03:05:49.990Z,2.1
2023-03-25T03:06:50.753Z,1.4
2023-03-25T03:07:51.344Z,2.0
2023-03-25T03:08:51.937Z,2.0
2023-03-25T03:09:52.532Z,2.2
2023-03-25T03:10:53.124Z,2.1
2023-03-25T03:11:53.715Z,1.8
2023-03-25T03:12:54.318Z,1.5
2023-03-25T03:13:54.918Z,2.2
2023-03-25T03:14:55.511Z,1.7
2023-03-25T03:15:56.122Z,1.8
2023-03-25T03:16:56.768Z,2.2
2023-03-25T03:17:57.405Z,1.7
2023-03-25T03:18:57.978Z,2.4
2023-03-25T03:19:58.571Z,2.2
2023-03-25T03:20:59.165Z,1.7
2023-03-25T03:21:59.756Z,2.3
2023-03-25T03:23:00.354Z,2.1
2023-03-25T03:24:00.942Z,2.3
2023-03-25T03:25:01.559Z,1.7
2023-03-25T03:26:02.148Z,2.0
2023-03-25T03:27:02.753Z,2.0
2023-03-25T03:28:03.332Z,2.1
2023-03-25T03:29:03.927Z,1.9
2023-03-25T03:30:04.531Z,2.5
2023-03-25T03:31:05.141Z,2.2
2023-03-25T03:32:06.854Z,2.4
2023-03-25T03:33:06.338Z,2.5
2023-03-25T03:34:06.918Z,2.3
2023-03-25T03:35:07.513Z,3.0
2023-03-25T03:36:08.127Z,2.0
2023-03-25T03:37:08.709Z,2.2
2023-03-25T03:38:09.314Z,2.3
2023-03-25T03:39:09.908Z,2.3
2023-03-25T03:40:10.540Z,2.4
2023-03-25T03:41:11.134Z,2.9
2023-03-25T03:42:11.789Z,2.5
2023-03-25T03:43:12.384Z,2.9
2023-03-25T03:44:12.978Z,2.3
2023-03-25T03:45:13.573Z,2.9
2023-03-25T03:46:14.208Z,2.6
2023-03-25T03:47:14.760Z,2.4
2023-03-25T03:48:15.354Z,2.3
2023-03-25T03:49:15.947Z,2.4
2023-03-25T03:50:16.540Z,1.8
2023-03-25T03:51:17.151Z,3.0
2023-03-25T03:52:17.744Z,2.2
2023-03-25T03:53:18.360Z,2.6
2023-03-25T03:54:18.947Z,2.6
2023-03-25T03:55:19.559Z,2.9
2023-03-25T03:56:20.156Z,2.6
2023-03-25T03:57:20.753Z,3.0
2023-03-25T03:58:21.364Z,2.9
2023-03-25T03:59:21.957Z,2.6
2023-03-25T04:00:22.558Z,3.3
2023-03-25T04:01:23.168Z,2.5
2023-03-25T04:02:23.854Z,2.8
2023-03-25T04:03:24.895Z,2.7
2023-03-25T04:04:25.536Z,2.8
2023-03-25T04:05:26.129Z,2.8
2023-03-25T04:06:26.738Z,2.5
2023-03-25T04:07:27.315Z,2.9
2023-03-25T04:08:27.909Z,2.4
2023-03-25T04:09:28.505Z,2.9
2023-03-25T04:10:29.097Z,3.0
2023-03-25T04:11:29.709Z,2.8
2023-03-25T04:12:30.301Z,2.5
2023-03-25T04:13:30.918Z,3.4
2023-03-25T04:14:31.515Z,3.2
2023-03-25T04:15:32.099Z,3.0
2023-03-25T04:16:35.829Z,3.5
2023-03-25T04:17:34.306Z,4.2
2023-03-25T04:18:34.880Z,2.8
2023-03-25T04:19:35.461Z,2.6
2023-03-25T04:20:36.073Z,2.6
2023-03-25T04:21:36.673Z,2.9
2023-03-25T04:22:37.265Z,2.7
2023-03-25T04:23:37.865Z,2.7
2023-03-25T04:24:38.463Z,2.5
2023-03-25T04:25:39.057Z,3.0
2023-03-25T04:26:39.673Z,3.3
2023-03-25T04:27:40.273Z,3.2
2023-03-25T04:28:40.858Z,3.2
2023-03-25T04:29:41.451Z,3.0
2023-03-25T04:30:42.042Z,3.0
2023-03-25T04:31:42.669Z,3.1
2023-03-25T04:32:43.259Z,3.5
2023-03-25T04:33:43.837Z,3.7
2023-03-25T04:34:44.415Z,3.6
2023-03-25T04:35:45.023Z,3.4
2023-03-25T04:36:45.603Z,3.9
2023-03-25T04:37:46.214Z,4.1
2023-03-25T04:38:46.809Z,4.4
2023-03-25T04:39:47.419Z,4.5
2023-03-25T04:40:48.165Z,4.3
2023-03-25T04:41:48.622Z,4.2
2023-03-25T04:42:49.235Z,4.1
2023-03-25T04:43:49.827Z,4.0
2023-03-25T04:44:50.450Z,4.3
2023-03-25T04:45:51.256Z,4.4
2023-03-25T04:46:51.927Z,3.9
2023-03-25T04:47:52.523Z,4.9
2023-03-25T04:48:53.122Z,4.0
2023-03-25T04:49:53.713Z,3.9
2023-03-25T04:50:54.309Z,4.2
2023-03-25T04:51:54.904Z,4.8
2023-03-25T04:52:55.508Z,6.1
2023-03-25T04:53:56.096Z,5.6
2023-03-25T04:54:56.708Z,5.1
2023-03-25T04:55:57.303Z,4.9
2023-03-25T04:56:57.924Z,4.8
2023-03-25T04:57:58.526Z,4.2
2023-03-25T04:58:59.102Z,4.4
2023-03-25T04:59:59.717Z,4.2
2023-03-25T05:01:00.327Z,4.3
2023-03-25T05:02:00.924Z,4.3
2023-03-25T05:03:01.604Z,3.9
2023-03-25T05:04:02.225Z,3.6
2023-03-25T05:05:02.797Z,3.8
2023-03-25T05:06:03.410Z,2.9
2023-03-25T05:07:03.999Z,3.2
2023-03-25T05:08:04.610Z,3.2
2023-03-25T05:09:05.208Z,3.0
2023-03-25T05:10:05.815Z,3.2
2023-03-25T05:11:06.407Z,3.5
2023-03-25T05:12:07.004Z,3.5
2023-03-25T05:13:07.602Z,3.6
2023-03-25T05:14:08.196Z,3.3
2023-03-25T05:15:08.789Z,3.2
2023-03-25T05:16:09.398Z,2.6
2023-03-25T05:17:09.993Z,2.9
2023-03-25T05:18:10.594Z,3.0
2023-03-25T05:19:11.184Z,2.8
2023-03-25T05:20:11.785Z,3.0
2023-03-25T05:21:12.376Z,3.1
2023-03-25T05:22:12.978Z,2.6
2023-03-25T05:23:13.568Z,2.7
2023-03-25T05:24:14.162Z,2.9
2023-03-25T05:25:14.765Z,2.7
2023-03-25T05:26:15.359Z,2.8
2023-03-25T05:27:15.955Z,2.6
2023-03-25T05:28:16.554Z,2.3
2023-03-25T05:29:17.150Z,3.2
2023-03-25T05:30:17.772Z,2.5
2023-03-25T05:31:18.415Z,2.7
2023-03-25T05:32:18.984Z,2.7
2023-03-25T05:33:19.582Z,2.4
2023-03-25T05:34:20.180Z,2.7
2023-03-25T05:35:20.872Z,2.3
2023-03-25T05:36:21.409Z,2.4
2023-03-25T05:37:22.008Z,2.4
2023-03-25T05:38:22.608Z,2.7
2023-03-25T05:39:23.202Z,2.3
2023-03-25T05:40:23.826Z,2.1
2023-03-25T05:41:24.400Z,2.3
2023-03-25T05:42:25.235Z,2.5
2023-03-25T05:43:25.834Z,2.8
2023-03-25T05:44:26.431Z,3.0
2023-03-25T05:45:27.058Z,1.9
2023-03-25T05:46:27.773Z,2.1
2023-03-25T05:47:28.428Z,2.6
2023-03-25T05:48:29.016Z,2.3
2023-03-25T05:49:29.632Z,2.3
2023-03-25T05:50:30.239Z,2.4
2023-03-25T05:51:30.845Z,2.3
2023-03-25T05:52:31.622Z,2.6
2023-03-25T05:53:32.218Z,2.4
2023-03-25T05:54:32.804Z,2.2
2023-03-25T05:55:33.401Z,2.4
2023-03-25T05:56:34.057Z,2.6
2023-03-25T05:57:34.631Z,2.4
2023-03-25T05:58:35.249Z,2.6
2023-03-25T05:59:35.847Z,3.1
2023-03-25T06:00:37.331Z,3.1
2023-03-25T06:01:38.015Z,2.7
2023-03-25T06:02:38.629Z,3.0
2023-03-25T06:03:39.336Z,2.6
2023-03-25T06:04:39.976Z,3.3
2023-03-25T06:05:40.564Z,2.8
2023-03-25T06:06:41.172Z,2.5
2023-03-25T06:07:41.778Z,2.6
2023-03-25T06:08:42.390Z,2.7
2023-03-25T06:09:42.993Z,2.7
2023-03-25T06:10:43.592Z,2.9
2023-03-25T06:11:44.211Z,2.9
2023-03-25T06:12:44.815Z,4.4
2023-03-25T06:13:45.428Z,2.6
2023-03-25T06:14:46.054Z,3.3
2023-03-25T06:15:46.710Z,2.7
2023-03-25T06:16:47.271Z,2.9
2023-03-25T06:17:47.923Z,3.2
2023-03-25T06:18:48.492Z,3.3
2023-03-25T06:19:49.084Z,3.4
2023-03-25T06:20:49.683Z,2.9
2023-03-25T06:21:50.303Z,3.1
2023-03-25T06:22:50.911Z,3.1
2023-03-25T06:23:51.518Z,2.9
2023-03-25T06:24:52.138Z,2.9
2023-03-25T06:25:52.979Z,3.3
2023-03-25T06:26:53.349Z,2.8
2023-03-25T06:27:53.969Z,3.1
2023-03-25T06:28:54.568Z,3.0
2023-03-25T06:29:55.185Z,2.7
2023-03-25T06:30:55.848Z,3.6
2023-03-25T06:31:56.405Z,3.2
2023-03-25T06:32:57.019Z,2.7
2023-03-25T06:33:57.605Z,2.7
2023-03-25T06:34:58.218Z,2.6
2023-03-25T06:35:58.847Z,2.9
2023-03-25T06:36:59.414Z,3.0
2023-03-25T06:38:00.017Z,3.1
2023-03-25T06:39:00.617Z,2.5
2023-03-25T06:40:01.207Z,2.9
2023-03-25T06:41:01.813Z,2.9
2023-03-25T06:42:02.398Z,2.7
2023-03-25T06:43:02.997Z,2.6
2023-03-25T06:44:03.624Z,2.3
2023-03-25T06:45:04.221Z,2.5
2023-03-25T06:46:04.866Z,3.5
2023-03-25T06:47:05.467Z,2.3
2023-03-25T06:48:06.053Z,2.4
2023-03-25T06:49:06.651Z,2.1
2023-03-25T06:50:07.288Z,2.3
2023-03-25T06:51:07.868Z,2.3
2023-03-25T06:52:08.465Z,2.2
2023-03-25T06:53:09.107Z,2.1
2023-03-25T06:54:09.679Z,2.5
2023-03-25T06:55:10.276Z,2.5
2023-03-25T06:56:10.871Z,2.8
2023-03-25T06:57:11.495Z,2.9
2023-03-25T06:58:12.085Z,2.9
2023-03-25T06:59:12.707Z,3.2
2023-03-25T07:00:13.309Z,3.0
2023-03-25T07:01:13.901Z,3.0
2023-03-25T07:02:14.542Z,3.1
2023-03-25T07:03:15.119Z,3.2
2023-03-25T07:04:16.512Z,3.4
2023-03-25T07:05:17.366Z,3.0
2023-03-25T07:06:17.936Z,3.5
2023-03-25T07:07:18.537Z,3.7
2023-03-25T07:08:19.132Z,4.1
2023-03-25T07:09:19.732Z,3.6
2023-03-25T07:10:20.330Z,3.0
2023-03-25T07:11:20.933Z,3.0
2023-03-25T07:12:21.548Z,2.8
2023-03-25T07:13:22.146Z,3.2
2023-03-25T07:14:22.746Z,3.1
2023-03-25T07:15:23.364Z,3.0
2023-03-25T07:16:23.998Z,2.5
2023-03-25T07:17:24.631Z,3.1
2023-03-25T07:18:25.196Z,2.9
2023-03-25T07:19:25.817Z,2.9
2023-03-25T07:20:26.438Z,2.9
2023-03-25T07:21:27.057Z,2.6
2023-03-25T07:22:27.673Z,3.1
2023-03-25T07:23:28.255Z,3.0
2023-03-25T07:24:28.864Z,2.9
2023-03-25T07:25:29.461Z,2.6
2023-03-25T07:26:30.081Z,1.9
2023-03-25T07:27:30.690Z,2.4
2023-03-25T07:28:31.288Z,2.1
2023-03-25T07:29:31.941Z,2.1
2023-03-25T07:30:32.509Z,1.9
2023-03-25T07:31:33.130Z,2.4
2023-03-25T07:32:33.759Z,2.3
2023-03-25T07:33:34.339Z,2.4
2023-03-25T07:34:34.938Z,1.9
2023-03-25T07:35:35.566Z,2.3
2023-03-25T07:36:36.135Z,1.9
2023-03-25T07:37:36.739Z,2.2
2023-03-25T07:38:37.333Z,2.0
2023-03-25T07:39:37.953Z,2.2
2023-03-25T07:40:38.573Z,1.9
2023-03-25T07:41:39.169Z,2.5
2023-03-25T07:42:39.770Z,2.0
2023-03-25T07:43:40.380Z,1.7
2023-03-25T07:44:41.003Z,2.1
2023-03-25T07:45:43.757Z,2.3
2023-03-25T07:46:42.207Z,1.9
2023-03-25T07:47:42.826Z,2.1
2023-03-25T07:48:43.402Z,1.4
2023-03-25T07:49:44.000Z,2.0
2023-03-25T07:50:44.620Z,1.8
2023-03-25T07:51:45.239Z,1.6
2023-03-25T07:52:45.841Z,1.9
2023-03-25T07:53:46.453Z,1.9
2023-03-25T07:54:47.042Z,1.8
2023-03-25T07:55:47.639Z,2.3
2023-03-25T07:56:48.288Z,1.9
2023-03-25T07:57:48.858Z,2.3
2023-03-25T07:58:49.460Z,1.9
2023-03-25T07:59:50.058Z,2.1
2023-03-25T08:00:50.657Z,1.7
2023-03-25T08:01:51.316Z,2.9
2023-03-25T08:02:51.944Z,2.0
2023-03-25T08:03:52.613Z,1.6
2023-03-25T08:04:53.164Z,2.2
2023-03-25T08:05:54.053Z,2.3
2023-03-25T08:06:54.766Z,2.1
2023-03-25T08:07:55.441Z,2.5
2023-03-25T08:08:56.004Z,2.8
2023-03-25T08:09:56.594Z,2.4
2023-03-25T08:10:57.211Z,3.0
2023-03-25T08:11:57.829Z,2.3
2023-03-25T08:12:58.407Z,2.5
2023-03-25T08:13:59.006Z,2.8
2023-03-25T08:14:59.621Z,3.1
2023-03-25T08:16:00.219Z,2.5
2023-03-25T08:17:00.816Z,2.6
2023-03-25T08:18:01.480Z,2.3
2023-03-25T08:19:02.030Z,2.4
2023-03-25T08:20:02.646Z,2.7
2023-03-25T08:21:03.257Z,2.9
2023-03-25T08:22:03.868Z,2.8
2023-03-25T08:23:04.463Z,3.1
2023-03-25T08:24:05.153Z,3.2
2023-03-25T08:25:05.693Z,2.5
2023-03-25T08:26:06.293Z,3.5
2023-03-25T08:27:16.604Z,2.8
2023-03-25T08:28:08.527Z,2.8
2023-03-25T08:29:09.135Z,2.9
2023-03-25T08:30:09.720Z,2.4
2023-03-25T08:31:10.338Z,3.1
2023-03-25T08:32:10.929Z,2.4
2023-03-25T08:33:11.519Z,2.5
2023-03-25T08:34:12.120Z,2.9
2023-03-25T08:35:12.720Z,2.6
2023-03-25T08:36:13.318Z,2.4
2023-03-25T08:37:13.933Z,3.5
2023-03-25T08:38:14.518Z,2.6
2023-03-25T08:39:15.135Z,2.4
2023-03-25T08:40:15.733Z,2.4
2023-03-25T08:41:16.332Z,2.9
2023-03-25T08:42:16.934Z,2.8
2023-03-25T08:43:17.530Z,2.4
2023-03-25T08:44:18.126Z,3.0
2023-03-25T08:45:18.726Z,2.6
2023-03-25T08:46:19.385Z,3.0
2023-03-25T08:47:19.961Z,2.4
2023-03-25T08:48:20.576Z,3.2
2023-03-25T08:49:21.177Z,2.7
2023-03-25T08:50:21.774Z,2.5
2023-03-25T08:51:22.377Z,3.0
2023-03-25T08:52:22.975Z,2.6
2023-03-25T08:53:23.599Z,3.0
2023-03-25T08:54:24.173Z,3.1
2023-03-25T08:55:24.772Z,3.1
2023-03-25T08:56:25.380Z,3.2
2023-03-25T08:57:25.984Z,3.1
2023-03-25T08:58:26.583Z,2.8
2023-03-25T08:59:27.172Z,3.4
2023-03-25T09:00:27.785Z,3.2
2023-03-25T09:01:28.414Z,3.4
2023-03-25T09:02:29.002Z,2.9
2023-03-25T09:03:29.605Z,3.0
2023-03-25T09:04:30.205Z,3.0
2023-03-25T09:05:30.860Z,3.2
2023-03-25T09:06:47.830Z,2.9
2023-03-25T09:07:33.011Z,2.9
2023-03-25T09:08:33.610Z,2.9
2023-03-25T09:09:34.211Z,2.8
2023-03-25T09:10:36.689Z,3.5
2023-03-25T09:11:37.196Z,2.7
2023-03-25T09:12:37.832Z,2.7
2023-03-25T09:13:38.409Z,2.5
2023-03-25T09:14:39.015Z,3.0
2023-03-25T09:15:39.632Z,3.1
2023-03-25T09:16:40.207Z,2.6
2023-03-25T09:17:40.814Z,2.9
2023-03-25T09:18:41.437Z,2.6
2023-03-25T09:19:42.028Z,3.0
2023-03-25T09:20:42.626Z,3.1
2023-03-25T09:21:43.242Z,2.8
2023-03-25T09:22:43.860Z,2.6
2023-03-25T09:23:44.528Z,3.5
2023-03-25T09:24:45.074Z,2.9
2023-03-25T09:25:45.675Z,3.3
2023-03-25T09:26:46.275Z,3.6
2023-03-25T09:27:46.873Z,2.7
2023-03-25T09:28:47.474Z,3.2
2023-03-25T09:29:48.076Z,2.8
2023-03-25T09:30:48.693Z,3.0
2023-03-25T09:31:49.277Z,2.8
2023-03-25T09:32:49.909Z,3.0
2023-03-25T09:33:50.508Z,3.0
2023-03-25T09:34:51.087Z,3.2
2023-03-25T09:35:51.904Z,3.1
2023-03-25T09:36:52.595Z,2.6
2023-03-25T09:37:53.195Z,3.0
2023-03-25T09:38:53.794Z,3.0
2023-03-25T09:39:54.395Z,3.3
2023-03-25T09:40:54.991Z,2.7
2023-03-25T09:41:55.593Z,3.2
2023-03-25T09:42:56.190Z,2.9
2023-03-25T09:43:56.791Z,3.1
2023-03-25T09:44:57.411Z,2.8
2023-03-25T09:45:58.005Z,3.1
2023-03-25T09:46:58.611Z,2.6
2023-03-25T09:47:59.249Z,2.6
2023-03-25T09:48:59.822Z,2.9
2023-03-25T09:50:01.340Z,2.9
2023-03-25T09:51:02.003Z,3.2
2023-03-25T09:52:02.602Z,3.0
2023-03-25T09:53:03.224Z,2.9
2023-03-25T09:54:03.817Z,3.9
2023-03-25T09:55:04.416Z,2.9
2023-03-25T09:56:05.019Z,2.9
2023-03-25T09:57:05.661Z,2.8
2023-03-25T09:58:06.238Z,2.9
2023-03-25T09:59:06.836Z,3.5
2023-03-25T10:00:07.444Z,3.3
2023-03-25T10:01:08.092Z,2.8
2023-03-25T10:02:08.742Z,2.9
2023-03-25T10:03:09.347Z,3.2
2023-03-25T10:04:09.920Z,3.3
2023-03-25T10:05:10.526Z,3.3
2023-03-25T10:06:11.123Z,2.4
2023-03-25T10:07:11.721Z,2.9
2023-03-25T10:08:12.325Z,3.6
2023-03-25T10:09:12.957Z,2.9
2023-03-25T10:10:13.568Z,2.8
2023-03-25T10:11:14.146Z,2.6
2023-03-25T10:12:14.750Z,2.4
2023-03-25T10:13:15.367Z,2.6
2023-03-25T10:14:15.978Z,2.6
2023-03-25T10:15:16.569Z,2.9
2023-03-25T10:16:17.186Z,2.8
2023-03-25T10:17:17.764Z,3.0
2023-03-25T10:18:18.364Z,2.4
2023-03-25T10:19:18.969Z,2.4
2023-03-25T10:20:19.560Z,2.3
2023-03-25T10:21:20.182Z,2.9
2023-03-25T10:22:20.783Z,2.5
2023-03-25T10:23:21.380Z,2.5
2023-03-25T10:24:21.985Z,2.4
2023-03-25T10:25:22.582Z,2.4
2023-03-25T10:26:23.181Z,2.4
2023-03-25T10:27:23.780Z,2.4
2023-03-25T10:28:24.409Z,2.9
2023-03-25T10:29:25.004Z,4.0
2023-03-25T10:30:25.630Z,3.3
2023-03-25T10:31:26.279Z,3.3
2023-03-25T10:32:26.870Z,3.0
2023-03-25T10:33:27.453Z,2.7
2023-03-25T10:34:28.049Z,2.5
2023-03-25T10:35:28.689Z,2.4
2023-03-25T10:36:29.268Z,2.4
2023-03-25T10:37:29.867Z,2.2
2023-03-25T10:38:30.473Z,2.3
2023-03-25T10:39:31.089Z,2.9
2023-03-25T10:40:31.699Z,2.5
2023-03-25T10:41:32.311Z,2.6
2023-03-25T10:42:32.920Z,2.0
2023-03-25T10:43:33.512Z,2.5
2023-03-25T10:44:34.129Z,2.4
2023-03-25T10:45:34.763Z,2.5
2023-03-25T10:46:35.333Z,2.3
2023-03-25T10:47:35.978Z,3.2
2023-03-25T10:48:36.534Z,2.5
2023-03-25T10:49:37.180Z,2.4
2023-03-25T10:50:37.748Z,2.1
2023-03-25T10:51:38.347Z,2.6
2023-03-25T10:52:38.958Z,2.4
2023-03-25T10:53:39.549Z,2.7
2023-03-25T10:54:40.184Z,2.3
2023-03-25T10:55:40.770Z,2.4
2023-03-25T10:56:41.402Z,2.3
2023-03-25T10:57:41.975Z,2.8
2023-03-25T10:58:42.587Z,3.1
2023-03-25T10:59:43.175Z,2.5
2023-03-25T11:00:43.772Z,2.5
2023-03-25T11:01:44.371Z,2.9
2023-03-25T11:02:45.062Z,2.7
2023-03-25T11:03:45.647Z,2.8
2023-03-25T11:04:46.256Z,2.9
2023-03-25T11:05:46.862Z,2.6
2023-03-25T11:06:47.474Z,2.4
2023-03-25T11:07:48.070Z,2.6
2023-03-25T11:08:48.673Z,2.9
2023-03-25T11:09:49.274Z,2.6
2023-03-25T11:10:49.880Z,3.1
2023-03-25T11:11:50.479Z,2.5
2023-03-25T11:12:51.077Z,2.6
2023-03-25T11:13:51.684Z,2.7
2023-03-25T11:14:52.278Z,2.8
2023-03-25T11:15:53.262Z,3.2
2023-03-25T11:16:53.527Z,2.2
2023-03-25T11:17:54.127Z,2.7
2023-03-25T11:18:54.698Z,2.4
2023-03-25T11:19:55.319Z,3.0
2023-03-25T11:20:55.918Z,2.5
2023-03-25T11:21:56.550Z,3.0
2023-03-25T11:22:57.158Z,3.3
2023-03-25T11:23:57.712Z,2.5
2023-03-25T11:24:58.601Z,2.8
2023-03-25T11:25:59.196Z,2.5
2023-03-25T11:26:59.805Z,2.9
2023-03-25T11:28:00.399Z,2.8
2023-03-25T11:29:01.005Z,3.0
2023-03-25T11:30:01.642Z,2.8
2023-03-25T11:31:02.400Z,3.4
2023-03-25T11:32:02.962Z,2.5
2023-03-25T11:33:03.606Z,3.0
2023-03-25T11:34:04.287Z,3.1
2023-03-25T11:35:04.849Z,2.7
2023-03-25T11:36:05.475Z,2.4
2023-03-25T11:37:06.048Z,2.6
2023-03-25T11:38:06.648Z,2.4
2023-03-25T11:39:08.300Z,2.6
2023-03-25T11:40:08.842Z,2.6
2023-03-25T11:41:09.445Z,2.5
2023-03-25T11:42:10.043Z,2.6
2023-03-25T11:43:10.644Z,3.0
2023-03-25T11:44:11.246Z,2.3
2023-03-25T11:45:11.856Z,2.3
2023-03-25T11:46:12.479Z,2.5
2023-03-25T11:47:13.053Z,2.5
2023-03-25T11:48:13.723Z,2.4
2023-03-25T11:49:14.326Z,2.4
2023-03-25T11:50:14.953Z,2.4
2023-03-25T11:51:15.548Z,2.1
2023-03-25T11:52:16.170Z,2.1
2023-03-25T11:53:16.797Z,2.4
2023-03-25T11:54:17.390Z,2.5
2023-03-25T11:55:18.010Z,1.8
2023-03-25T11:56:18.636Z,2.0
2023-03-25T11:57:19.240Z,1.5
2023-03-25T11:58:19.833Z,1.3
2023-03-25T11:59:20.437Z,1.7
2023-03-25T12:00:21.042Z,1.6
2023-03-25T12:01:21.640Z,1.7
2023-03-25T12:02:22.292Z,2.2
2023-03-25T12:03:23.031Z,1.9
2023-03-25T12:04:23.763Z,2.6
2023-03-25T12:05:24.365Z,2.6
2023-03-25T12:06:25.009Z,2.2
2023-03-25T12:07:25.586Z,2.1
2023-03-25T12:08:26.184Z,2.1
2023-03-25T12:09:28.454Z,2.3
2023-03-25T12:10:27.468Z,2.0
2023-03-25T12:11:28.094Z,2.6
2023-03-25T12:12:28.668Z,2.2
2023-03-25T12:13:29.267Z,2.1
2023-03-25T12:14:29.894Z,2.4
2023-03-25T12:15:30.472Z,2.2
2023-03-25T12:16:31.111Z,2.3
2023-03-25T12:17:31.781Z,2.3
2023-03-25T12:18:32.307Z,2.6
2023-03-25T12:19:32.924Z,2.1
2023-03-25T12:20:33.563Z,1.7
2023-03-25T12:21:34.140Z,3.0
2023-03-25T12:22:34.740Z,2.1
2023-03-25T12:23:35.361Z,2.3
2023-03-25T12:24:36.005Z,1.8
2023-03-25T12:25:36.603Z,2.5
2023-03-25T12:26:37.208Z,2.2
2023-03-25T12:27:37.810Z,2.1
2023-03-25T12:28:38.412Z,1.8
2023-03-25T12:29:39.012Z,2.4
2023-03-25T12:30:39.610Z,2.3
2023-03-25T12:31:40.241Z,1.8
2023-03-25T12:32:40.818Z,1.8
2023-03-25T12:33:41.417Z,2.0
2023-03-25T12:34:42.036Z,2.1
2023-03-25T12:35:42.659Z,1.8
2023-03-25T12:36:43.247Z,1.8
2023-03-25T12:37:43.841Z,1.8
2023-03-25T12:38:44.444Z,2.0
2023-03-25T12:39:45.042Z,2.0
2023-03-25T12:40:45.665Z,2.1
2023-03-25T12:41:46.261Z,1.9
2023-03-25T12:42:46.881Z,1.9
2023-03-25T12:43:47.496Z,2.4
2023-03-25T12:44:48.102Z,2.1
2023-03-25T12:45:48.796Z,1.7
2023-03-25T12:46:49.360Z,1.9
2023-03-25T12:47:50.016Z,2.1
2023-03-25T12:48:50.590Z,2.0
2023-03-25T12:49:51.194Z,2.0
2023-03-25T12:50:51.916Z,2.3
2023-03-25T12:51:52.604Z,2.1
2023-03-25T12:52:53.222Z,2.2
2023-03-25T12:53:53.821Z,1.9
2023-03-25T12:54:54.425Z,2.5
2023-03-25T12:55:55.345Z,2.2
2023-03-25T12:56:56.003Z,2.1
2023-03-25T12:57:56.820Z,2.1
2023-03-25T12:58:57.421Z,1.8
2023-03-25T12:59:58.034Z,1.8
2023-03-25T13:00:58.658Z,2.1
2023-03-25T13:01:59.299Z,2.9
2023-03-25T13:02:59.950Z,2.5
2023-03-25T13:04:00.596Z,2.8
2023-03-25T13:05:01.192Z,2.9
2023-03-25T13:06:01.792Z,2.4
2023-03-25T13:07:02.390Z,2.3
2023-03-25T13:08:03.012Z,2.8
2023-03-25T13:09:03.612Z,2.5
2023-03-25T13:10:04.227Z,3.0
2023-03-25T13:11:04.827Z,3.1
2023-03-25T13:12:05.444Z,3.1
2023-03-25T13:13:06.045Z,3.1
2023-03-25T13:14:06.643Z,2.6
2023-03-25T13:15:07.242Z,2.4
2023-03-25T13:16:07.942Z,1.9
2023-03-25T13:17:08.576Z,1.7
2023-03-25T13:18:09.239Z,1.8
2023-03-25T13:19:09.801Z,1.4
2023-03-25T13:20:10.404Z,1.6
2023-03-25T13:21:14.228Z,1.5
2023-03-25T13:22:11.619Z,1.6
2023-03-25T13:23:12.221Z,1.8
2023-03-25T13:24:12.852Z,1.8
2023-03-25T13:25:13.466Z,1.7
2023-03-25T13:26:14.063Z,1.7
2023-03-25T13:27:14.669Z,2.0
2023-03-25T13:28:15.271Z,1.8
2023-03-25T13:29:15.873Z,2.4
2023-03-25T13:30:16.492Z,2.2
2023-03-25T13:31:17.075Z,1.8
2023-03-25T13:32:17.713Z,2.0
2023-03-25T13:33:18.315Z,1.6
2023-03-25T13:34:18.934Z,1.9
2023-03-25T13:35:19.565Z,1.7
2023-03-25T13:36:22.182Z,1.9
2023-03-25T13:37:21.727Z,1.9
2023-03-25T13:38:22.327Z,2.2
2023-03-25T13:39:22.987Z,1.8
2023-03-25T13:40:23.548Z,2.1
2023-03-25T13:41:24.166Z,2.0
2023-03-25T13:42:24.789Z,1.9
2023-03-25T13:43:25.408Z,2.2
2023-03-25T13:44:26.002Z,2.2
2023-03-25T13:45:26.603Z,1.6
2023-03-25T13:46:27.268Z,2.2
2023-03-25T13:47:27.921Z,1.6
2023-03-25T13:48:28.500Z,1.7
2023-03-25T13:49:29.099Z,2.0
2023-03-25T13:50:29.701Z,1.4
2023-03-25T13:51:30.311Z,2.5
2023-03-25T13:52:31.227Z,2.2
2023-03-25T13:53:31.777Z,2.0
2023-03-25T13:54:32.385Z,1.5
2023-03-25T13:55:33.060Z,1.9